sensor_id;sensor_type;location;lat;lon;timestamp;pressure;altitude;pressure_sealevel;temperature;humidity
41686;BME280;27370;42.764;23.432;2023-04-15T00:00:54;94813.19;;;4.43;100.00
41686;BME280;27370;42.764;23.432;2023-04-15T00:03:20;94808.56;;;4.61;100.00
41686;BME280;27370;42.764;23.432;2023-04-15T00:05:45;94808.19;;;4.63;100.00
41686;BME280;27370;42.764;23.432;2023-04-15T00:08:11;94813.53;;;4.70;100.00
41686;BME280;27370;42.764;23.432;2023-04-15T00:10:37;94814.59;;;4.97;100.00
41686;BME280;27370;42.764;23.432;2023-04-15T00:13:03;94824.47;;;5.25;100.00
41686;BME280;27370;42.764;23.432;2023-04-15T00:15:29;94822.16;;;5.20;100.00
41686;BME280;27370;42.764;23.432;2023-04-15T00:17:54;94832.03;;;5.41;100.00
41686;BME280;27370;42.764;23.432;2023-04-15T00:20:20;94836.63;;;5.47;100.00
41686;BME280;27370;42.764;23.432;2023-04-15T00:22:45;94840.47;;;5.46;100.00
41686;BME280;27370;42.764;23.432;2023-04-15T00:25:11;94829.69;;;5.50;100.00
41686;BME280;27370;42.764;23.432;2023-04-15T00:27:37;94832.00;;;5.48;100.00
41686;BME280;27370;42.764;23.432;2023-04-15T00:30:03;94822.06;;;5.41;100.00
41686;BME280;27370;42.764;23.432;2023-04-15T00:32:29;94832.00;;;5.48;100.00
41686;BME280;27370;42.764;23.432;2023-04-15T00:34:55;94827.38;;;5.52;100.00
41686;BME280;27370;42.764;23.432;2023-04-15T00:37:20;94815.09;;;5.54;100.00
41686;BME280;27370;42.764;23.432;2023-04-15T00:39:47;94820.03;;;5.63;100.00
41686;BME280;27370;42.764;23.432;2023-04-15T00:42:13;94821.56;;;5.61;100.00
41686;BME280;27370;42.764;23.432;2023-04-15T00:44:39;94818.09;;;5.64;100.00
41686;BME280;27370;42.764;23.432;2023-04-15T00:47:05;94827.34;;;5.59;100.00
41686;BME280;27370;42.764;23.432;2023-04-15T00:49:31;94823.16;;;5.54;100.00
41686;BME280;27370;42.764;23.432;2023-04-15T00:51:57;94831.06;;;5.76;100.00
41686;BME280;27370;42.764;23.432;2023-04-15T00:54:22;94838.72;;;5.81;100.00
41686;BME280;27370;42.764;23.432;2023-04-15T00:56:48;94842.59;;;5.76;100.00
41686;BME280;27370;42.764;23.432;2023-04-15T00:59:14;94847.97;;;5.76;100.00
41686;BME280;27370;42.764;23.432;2023-04-15T01:01:42;94858.72;;;5.73;100.00
41686;BME280;27370;42.764;23.432;2023-04-15T01:04:09;94851.56;;;5.52;100.00
41686;BME280;27370;42.764;23.432;2023-04-15T01:06:35;94848.09;;;5.51;100.00
41686;BME280;27370;42.764;23.432;2023-04-15T01:09:01;94847.75;;;5.46;100.00
41686;BME280;27370;42.764;23.432;2023-04-15T01:11:28;94855.69;;;5.67;100.00
41686;BME280;27370;42.764;23.432;2023-04-15T01:13:55;94849.63;;;5.52;100.00
41686;BME280;27370;42.764;23.432;2023-04-15T01:16:23;94846.63;;;5.36;100.00
41686;BME280;27370;42.764;23.432;2023-04-15T01:18:49;94850.44;;;5.39;100.00
41686;BME280;27370;42.764;23.432;2023-04-15T01:21:14;94849.41;;;5.22;100.00
41686;BME280;27370;42.764;23.432;2023-04-15T01:23:41;94854.81;;;5.08;100.00
41686;BME280;27370;42.764;23.432;2023-04-15T01:26:09;94848.31;;;5.02;100.00
41686;BME280;27370;42.764;23.432;2023-04-15T01:28:35;94839.91;;;5.00;100.00
41686;BME280;27370;42.764;23.432;2023-04-15T01:31:11;94844.84;;;5.05;100.00
41686;BME280;27370;42.764;23.432;2023-04-15T01:33:41;94837.88;;;5.18;100.00
41686;BME280;27370;42.764;23.432;2023-04-15T01:36:08;94824.88;;;5.13;100.00
41686;BME280;27370;42.764;23.432;2023-04-15T01:38:35;94837.47;;;5.30;100.00
41686;BME280;27370;42.764;23.432;2023-04-15T01:41:01;94840.56;;;5.18;100.00
41686;BME280;27370;42.764;23.432;2023-04-15T01:43:28;94858.34;;;4.69;100.00
41686;BME280;27370;42.764;23.432;2023-04-15T01:45:54;94846.47;;;4.70;100.00
41686;BME280;27370;42.764;23.432;2023-04-15T01:48:20;94857.63;;;4.37;100.00
41686;BME280;27370;42.764;23.432;2023-04-15T01:50:45;94859.16;;;4.20;100.00
41686;BME280;27370;42.764;23.432;2023-04-15T01:53:13;94869.50;;;4.21;100.00
41686;BME280;27370;42.764;23.432;2023-04-15T01:55:39;94864.91;;;4.08;100.00
41686;BME280;27370;42.764;23.432;2023-04-15T01:58:05;94872.16;;;4.07;100.00
41686;BME280;27370;42.764;23.432;2023-04-15T02:00:31;94856.84;;;3.86;100.00
41686;BME280;27370;42.764;23.432;2023-04-15T02:02:58;94871.75;;;3.77;100.00
41686;BME280;27370;42.764;23.432;2023-04-15T02:05:24;94872.88;;;3.68;100.00
41686;BME280;27370;42.764;23.432;2023-04-15T02:07:50;94876.25;;;3.41;100.00
41686;BME280;27370;42.764;23.432;2023-04-15T02:10:16;94867.44;;;3.36;100.00
41686;BME280;27370;42.764;23.432;2023-04-15T02:12:42;94880.00;;;3.18;100.00
41686;BME280;27370;42.764;23.432;2023-04-15T02:15:08;94872.00;;;3.36;100.00
41686;BME280;27370;42.764;23.432;2023-04-15T02:17:35;94865.94;;;3.43;100.00
41686;BME280;27370;42.764;23.432;2023-04-15T02:20:02;94863.22;;;3.35;100.00
41686;BME280;27370;42.764;23.432;2023-04-15T02:22:30;94848.63;;;3.12;100.00
41686;BME280;27370;42.764;23.432;2023-04-15T02:24:56;94858.22;;;3.20;100.00
41686;BME280;27370;42.764;23.432;2023-04-15T02:27:22;94866.25;;;3.23;100.00
41686;BME280;27370;42.764;23.432;2023-04-15T02:29:49;94855.72;;;2.72;100.00
41686;BME280;27370;42.764;23.432;2023-04-15T02:32:17;94866.06;;;2.81;100.00
41686;BME280;27370;42.764;23.432;2023-04-15T02:34:43;94854.06;;;2.53;100.00
41686;BME280;27370;42.764;23.432;2023-04-15T02:37:12;94852.84;;;2.43;100.00
41686;BME280;27370;42.764;23.432;2023-04-15T02:39:38;94861.34;;;2.60;100.00
41686;BME280;27370;42.764;23.432;2023-04-15T02:42:04;94867.72;;;2.44;100.00
41686;BME280;27370;42.764;23.432;2023-04-15T02:44:31;94882.72;;;2.05;100.00
41686;BME280;27370;42.764;23.432;2023-04-15T02:46:59;94873.81;;;1.94;100.00
41686;BME280;27370;42.764;23.432;2023-04-15T02:49:25;94872.75;;;2.02;100.00
41686;BME280;27370;42.764;23.432;2023-04-15T02:51:50;94868.50;;;1.94;100.00
41686;BME280;27370;42.764;23.432;2023-04-15T02:54:18;94876.47;;;1.90;100.00
41686;BME280;27370;42.764;23.432;2023-04-15T02:56:44;94879.75;;;1.76;100.00
41686;BME280;27370;42.764;23.432;2023-04-15T02:59:11;94874.81;;;1.78;100.00
41686;BME280;27370;42.764;23.432;2023-04-15T03:01:36;94877.19;;;1.83;100.00
41686;BME280;27370;42.764;23.432;2023-04-15T03:04:02;94873.31;;;1.81;100.00
41686;BME280;27370;42.764;23.432;2023-04-15T03:06:27;94865.31;;;1.81;100.00
41686;BME280;27370;42.764;23.432;2023-04-15T03:08:53;94870.88;;;1.62;100.00
41686;BME280;27370;42.764;23.432;2023-04-15T03:11:19;94867.84;;;1.63;100.00
41686;BME280;27370;42.764;23.432;2023-04-15T03:13:45;94869.78;;;1.66;100.00
41686;BME280;27370;42.764;23.432;2023-04-15T03:16:33;94879.50;;;1.89;100.00
41686;BME280;27370;42.764;23.432;2023-04-15T03:18:59;94885.09;;;1.76;100.00
41686;BME280;27370;42.764;23.432;2023-04-15T03:21:25;94881.78;;;1.87;100.00
41686;BME280;27370;42.764;23.432;2023-04-15T03:23:51;94882.53;;;1.83;100.00
41686;BME280;27370;42.764;23.432;2023-04-15T03:26:28;94883.16;;;1.73;100.00
41686;BME280;27370;42.764;23.432;2023-04-15T03:28:57;94886.66;;;1.81;100.00
41686;BME280;27370;42.764;23.432;2023-04-15T03:31:23;94880.00;;;1.61;100.00
41686;BME280;27370;42.764;23.432;2023-04-15T03:33:49;94897.81;;;1.90;100.00
41686;BME280;27370;42.764;23.432;2023-04-15T03:36:15;94890.69;;;1.61;100.00
41686;BME280;27370;42.764;23.432;2023-04-15T03:38:41;94900.50;;;1.53;100.00
41686;BME280;27370;42.764;23.432;2023-04-15T03:41:07;94909.72;;;1.59;100.00
41686;BME280;27370;42.764;23.432;2023-04-15T03:43:33;94907.50;;;1.31;100.00
41686;BME280;27370;42.764;23.432;2023-04-15T03:45:59;94911.38;;;1.07;100.00
41686;BME280;27370;42.764;23.432;2023-04-15T03:48:24;94924.63;;;0.70;100.00
41686;BME280;27370;42.764;23.432;2023-04-15T03:50:50;94925.78;;;0.73;100.00
41686;BME280;27370;42.764;23.432;2023-04-15T03:53:15;94926.06;;;0.68;100.00
41686;BME280;27370;42.764;23.432;2023-04-15T03:55:41;94924.84;;;0.88;100.00
41686;BME280;27370;42.764;23.432;2023-04-15T03:58:06;94934.72;;;0.87;100.00
41686;BME280;27370;42.764;23.432;2023-04-15T04:00:32;94931.22;;;0.80;100.00
41686;BME280;27370;42.764;23.432;2023-04-15T04:02:57;94937.91;;;0.97;100.00
41686;BME280;27370;42.764;23.432;2023-04-15T04:05:23;94943.81;;;0.83;100.00
41686;BME280;27370;42.764;23.432;2023-04-15T04:07:48;94930.53;;;0.86;100.00
41686;BME280;27370;42.764;23.432;2023-04-15T04:10:14;94934.59;;;0.77;100.00
41686;BME280;27370;42.764;23.432;2023-04-15T04:12:39;94937.81;;;0.89;100.00
41686;BME280;27370;42.764;23.432;2023-04-15T04:15:05;94942.06;;;0.94;100.00
41686;BME280;27370;42.764;23.432;2023-04-15T04:17:31;94942.16;;;1.01;100.00
41686;BME280;27370;42.764;23.432;2023-04-15T04:19:57;94939.50;;;1.01;100.00
41686;BME280;27370;42.764;23.432;2023-04-15T04:22:22;94943.28;;;1.30;100.00
41686;BME280;27370;42.764;23.432;2023-04-15T04:24:48;94938.19;;;1.48;100.00
41686;BME280;27370;42.764;23.432;2023-04-15T04:27:14;94942.16;;;1.61;100.00
41686;BME280;27370;42.764;23.432;2023-04-15T04:29:40;94949.94;;;1.80;100.00
41686;BME280;27370;42.764;23.432;2023-04-15T04:32:06;94941.53;;;1.78;100.00
41686;BME280;27370;42.764;23.432;2023-04-15T04:34:31;94947.44;;;1.95;100.00
41686;BME280;27370;42.764;23.432;2023-04-15T04:36:57;94946.28;;;2.33;100.00
41686;BME280;27370;42.764;23.432;2023-04-15T04:39:22;94950.06;;;2.80;100.00
41686;BME280;27370;42.764;23.432;2023-04-15T04:41:48;94945.25;;;3.03;100.00
41686;BME280;27370;42.764;23.432;2023-04-15T04:44:14;94951.97;;;3.48;100.00
41686;BME280;27370;42.764;23.432;2023-04-15T04:46:39;94947.50;;;3.81;100.00
41686;BME280;27370;42.764;23.432;2023-04-15T04:49:05;94959.06;;;4.17;100.00
41686;BME280;27370;42.764;23.432;2023-04-15T04:51:30;94965.97;;;4.46;100.00
41686;BME280;27370;42.764;23.432;2023-04-15T04:53:56;94952.56;;;4.85;100.00
41686;BME280;27370;42.764;23.432;2023-04-15T04:56:22;94952.53;;;5.14;100.00
41686;BME280;27370;42.764;23.432;2023-04-15T04:58:47;94961.28;;;5.39;100.00
41686;BME280;27370;42.764;23.432;2023-04-15T05:01:13;94969.72;;;5.48;100.00
41686;BME280;27370;42.764;23.432;2023-04-15T05:03:38;94973.56;;;5.44;100.00
41686;BME280;27370;42.764;23.432;2023-04-15T05:06:04;94967.03;;;5.41;100.00
41686;BME280;27370;42.764;23.432;2023-04-15T05:08:31;94966.59;;;5.57;100.00
41686;BME280;27370;42.764;23.432;2023-04-15T05:10:57;94973.84;;;5.71;100.00
41686;BME280;27370;42.764;23.432;2023-04-15T05:13:22;94971.06;;;5.99;100.00
41686;BME280;27370;42.764;23.432;2023-04-15T05:15:48;94985.00;;;6.46;100.00
41686;BME280;27370;42.764;23.432;2023-04-15T05:18:14;94991.13;;;6.50;100.00
41686;BME280;27370;42.764;23.432;2023-04-15T05:20:39;94990.03;;;6.44;100.00
41686;BME280;27370;42.764;23.432;2023-04-15T05:23:05;95003.19;;;6.83;100.00
41686;BME280;27370;42.764;23.432;2023-04-15T05:25:31;95011.63;;;6.85;100.00
41686;BME280;27370;42.764;23.432;2023-04-15T05:27:56;95017.84;;;7.23;100.00
41686;BME280;27370;42.764;23.432;2023-04-15T05:30:22;95015.72;;;7.49;100.00
41686;BME280;27370;42.764;23.432;2023-04-15T05:32:47;95017.00;;;7.71;100.00
41686;BME280;27370;42.764;23.432;2023-04-15T05:35:13;95016.63;;;7.73;100.00
41686;BME280;27370;42.764;23.432;2023-04-15T05:37:38;95016.53;;;8.10;100.00
41686;BME280;27370;42.764;23.432;2023-04-15T05:40:04;95016.75;;;7.58;100.00
41686;BME280;27370;42.764;23.432;2023-04-15T05:42:30;95004.34;;;7.30;100.00
41686;BME280;27370;42.764;23.432;2023-04-15T05:44:55;95007.00;;;7.68;100.00
41686;BME280;27370;42.764;23.432;2023-04-15T05:47:21;95005.06;;;7.72;100.00
41686;BME280;27370;42.764;23.432;2023-04-15T05:49:47;94998.53;;;8.04;100.00
41686;BME280;27370;42.764;23.432;2023-04-15T05:52:12;95010.75;;;8.12;100.00
41686;BME280;27370;42.764;23.432;2023-04-15T05:54:38;95016.91;;;8.12;100.00
41686;BME280;27370;42.764;23.432;2023-04-15T05:57:03;95016.03;;;8.22;100.00
41686;BME280;27370;42.764;23.432;2023-04-15T05:59:29;95014.94;;;8.47;100.00
41686;BME280;27370;42.764;23.432;2023-04-15T06:01:55;95023.97;;;8.33;100.00
41686;BME280;27370;42.764;23.432;2023-04-15T06:04:21;95029.63;;;8.73;100.00
41686;BME280;27370;42.764;23.432;2023-04-15T06:06:47;95034.03;;;9.13;100.00
41686;BME280;27370;42.764;23.432;2023-04-15T06:09:13;95049.06;;;9.14;100.00
41686;BME280;27370;42.764;23.432;2023-04-15T06:11:38;95042.53;;;9.12;100.00
41686;BME280;27370;42.764;23.432;2023-04-15T06:14:05;95036.38;;;9.58;100.00
41686;BME280;27370;42.764;23.432;2023-04-15T06:16:31;95049.97;;;9.94;100.00
41686;BME280;27370;42.764;23.432;2023-04-15T06:18:56;95054.91;;;10.59;100.00
41686;BME280;27370;42.764;23.432;2023-04-15T06:21:22;95043.75;;;10.57;100.00
41686;BME280;27370;42.764;23.432;2023-04-15T06:23:47;95036.72;;;10.95;100.00
41686;BME280;27370;42.764;23.432;2023-04-15T06:26:13;95045.19;;;11.14;100.00
41686;BME280;27370;42.764;23.432;2023-04-15T06:28:38;95045.84;;;11.01;100.00
41686;BME280;27370;42.764;23.432;2023-04-15T06:31:04;95054.50;;;10.40;100.00
41686;BME280;27370;42.764;23.432;2023-04-15T06:33:30;95050.56;;;10.05;100.00
41686;BME280;27370;42.764;23.432;2023-04-15T06:35:56;95044.41;;;10.61;100.00
41686;BME280;27370;42.764;23.432;2023-04-15T06:38:22;95055.88;;;10.85;100.00
41686;BME280;27370;42.764;23.432;2023-04-15T06:40:47;95052.81;;;11.19;100.00
41686;BME280;27370;42.764;23.432;2023-04-15T06:43:13;95054.81;;;11.47;100.00
41686;BME280;27370;42.764;23.432;2023-04-15T06:45:39;95054.41;;;11.49;100.00
41686;BME280;27370;42.764;23.432;2023-04-15T06:48:05;95069.47;;;11.82;100.00
41686;BME280;27370;42.764;23.432;2023-04-15T06:50:31;95075.03;;;12.20;100.00
41686;BME280;27370;42.764;23.432;2023-04-15T06:52:57;95074.03;;;12.43;100.00
41686;BME280;27370;42.764;23.432;2023-04-15T06:55:22;95066.41;;;12.38;100.00
41686;BME280;27370;42.764;23.432;2023-04-15T06:57:48;95069.53;;;12.24;100.00
41686;BME280;27370;42.764;23.432;2023-04-15T07:00:13;95059.47;;;11.63;100.00
41686;BME280;27370;42.764;23.432;2023-04-15T07:02:39;95069.31;;;11.41;100.00
41686;BME280;27370;42.764;23.432;2023-04-15T07:05:06;95065.56;;;11.67;100.00
41686;BME280;27370;42.764;23.432;2023-04-15T07:07:32;95050.66;;;11.59;100.00
41686;BME280;27370;42.764;23.432;2023-04-15T07:09:57;95058.16;;;12.00;100.00
41686;BME280;27370;42.764;23.432;2023-04-15T07:12:23;95057.81;;;11.98;100.00
41686;BME280;27370;42.764;23.432;2023-04-15T07:14:48;95049.97;;;11.71;100.00
41686;BME280;27370;42.764;23.432;2023-04-15T07:17:14;95059.38;;;11.66;100.00
41686;BME280;27370;42.764;23.432;2023-04-15T07:19:39;95057.53;;;11.80;100.00
41686;BME280;27370;42.764;23.432;2023-04-15T07:22:05;95056.78;;;11.79;100.00
41686;BME280;27370;42.764;23.432;2023-04-15T07:24:32;95059.72;;;12.14;100.00
41686;BME280;27370;42.764;23.432;2023-04-15T07:26:57;95051.22;;;12.41;100.00
41686;BME280;27370;42.764;23.432;2023-04-15T07:29:24;95045.28;;;12.58;100.00
41686;BME280;27370;42.764;23.432;2023-04-15T07:31:50;95050.28;;;12.85;100.00
41686;BME280;27370;42.764;23.432;2023-04-15T07:34:18;95049.56;;;13.23;100.00
41686;BME280;27370;42.764;23.432;2023-04-15T07:36:45;95061.72;;;13.31;100.00
41686;BME280;27370;42.764;23.432;2023-04-15T07:39:10;95053.44;;;13.47;100.00
41686;BME280;27370;42.764;23.432;2023-04-15T07:41:36;95060.09;;;13.46;100.00
41686;BME280;27370;42.764;23.432;2023-04-15T07:44:03;95064.13;;;13.29;100.00
41686;BME280;27370;42.764;23.432;2023-04-15T07:46:30;95066.09;;;13.16;100.00
41686;BME280;27370;42.764;23.432;2023-04-15T07:48:56;95054.75;;;13.05;100.00
41686;BME280;27370;42.764;23.432;2023-04-15T07:51:22;95059.88;;;13.28;100.00
41686;BME280;27370;42.764;23.432;2023-04-15T07:53:48;95061.59;;;13.47;100.00
41686;BME280;27370;42.764;23.432;2023-04-15T07:56:15;95065.94;;;13.58;100.00
41686;BME280;27370;42.764;23.432;2023-04-15T07:58:41;95074.25;;;13.89;100.00
41686;BME280;27370;42.764;23.432;2023-04-15T08:01:08;95072.63;;;14.13;100.00
41686;BME280;27370;42.764;23.432;2023-04-15T08:03:34;95083.44;;;13.57;100.00
41686;BME280;27370;42.764;23.432;2023-04-15T08:06:01;95084.91;;;13.23;100.00
41686;BME280;27370;42.764;23.432;2023-04-15T08:08:27;95086.63;;;13.17;100.00
41686;BME280;27370;42.764;23.432;2023-04-15T08:10:53;95087.28;;;13.34;100.00
41686;BME280;27370;42.764;23.432;2023-04-15T08:13:20;95083.44;;;13.57;100.00
41686;BME280;27370;42.764;23.432;2023-04-15T08:16:12;95082.03;;;13.65;100.00
41686;BME280;27370;42.764;23.432;2023-04-15T08:18:38;95084.44;;;13.63;100.00
41686;BME280;27370;42.764;23.432;2023-04-15T08:21:05;95086.00;;;13.26;100.00
41686;BME280;27370;42.764;23.432;2023-04-15T08:23:31;95088.25;;;13.14;100.00
41686;BME280;27370;42.764;23.432;2023-04-15T08:25:58;95080.78;;;13.18;98.17
41686;BME280;27370;42.764;23.432;2023-04-15T08:28:25;95078.38;;;13.33;100.00
41686;BME280;27370;42.764;23.432;2023-04-15T08:30:52;95072.47;;;13.95;100.00
41686;BME280;27370;42.764;23.432;2023-04-15T08:33:18;95069.66;;;14.20;100.00
41686;BME280;27370;42.764;23.432;2023-04-15T08:35:44;95068.16;;;14.41;97.10
41686;BME280;27370;42.764;23.432;2023-04-15T08:38:11;95066.50;;;14.22;98.69
41686;BME280;27370;42.764;23.432;2023-04-15T08:40:42;95065.84;;;13.96;95.88
41686;BME280;27370;42.764;23.432;2023-04-15T08:43:12;95065.53;;;14.50;93.89
41686;BME280;27370;42.764;23.432;2023-04-15T08:45:40;95052.78;;;14.47;96.85
41686;BME280;27370;42.764;23.432;2023-04-15T08:48:08;95056.38;;;14.97;95.30
41686;BME280;27370;42.764;23.432;2023-04-15T08:50:38;95057.38;;;15.21;86.74
41686;BME280;27370;42.764;23.432;2023-04-15T08:53:05;95062.03;;;15.12;82.21
41686;BME280;27370;42.764;23.432;2023-04-15T08:55:32;95056.13;;;14.73;86.67
41686;BME280;27370;42.764;23.432;2023-04-15T08:58:01;95050.25;;;14.84;86.71
41686;BME280;27370;42.764;23.432;2023-04-15T09:00:28;95055.59;;;14.65;79.51
41686;BME280;27370;42.764;23.432;2023-04-15T09:02:58;95051.81;;;14.41;80.69
41686;BME280;27370;42.764;23.432;2023-04-15T09:05:24;95050.66;;;14.73;82.71
41686;BME280;27370;42.764;23.432;2023-04-15T09:07:51;95043.53;;;15.07;68.47
41686;BME280;27370;42.764;23.432;2023-04-15T09:10:17;95046.63;;;15.18;68.76
41686;BME280;27370;42.764;23.432;2023-04-15T09:12:43;95032.59;;;15.56;75.18
41686;BME280;27370;42.764;23.432;2023-04-15T09:15:10;95026.44;;;15.65;60.54
41686;BME280;27370;42.764;23.432;2023-04-15T09:17:42;95030.47;;;15.42;59.43
41686;BME280;27370;42.764;23.432;2023-04-15T09:20:10;95017.41;;;15.27;67.40
41686;BME280;27370;42.764;23.432;2023-04-15T09:22:38;95012.94;;;15.61;69.92
41686;BME280;27370;42.764;23.432;2023-04-15T09:25:24;95017.34;;;16.32;66.85
41686;BME280;27370;42.764;23.432;2023-04-15T09:30:22;94993.13;;;16.76;53.96
41686;BME280;27370;42.764;23.432;2023-04-15T09:32:53;95010.66;;;17.02;53.79
41686;BME280;27370;42.764;23.432;2023-04-15T09:35:21;95004.38;;;16.69;58.29
41686;BME280;27370;42.764;23.432;2023-04-15T09:37:49;95008.16;;;16.71;51.53
41686;BME280;27370;42.764;23.432;2023-04-15T09:42:59;95007.19;;;17.26;53.41
41686;BME280;27370;42.764;23.432;2023-04-15T09:45:27;95010.09;;;17.22;52.73
41686;BME280;27370;42.764;23.432;2023-04-15T09:47:53;95010.00;;;17.07;54.71
41686;BME280;27370;42.764;23.432;2023-04-15T09:50:19;95008.00;;;17.41;51.49
41686;BME280;27370;42.764;23.432;2023-04-15T09:52:46;95000.94;;;17.01;49.93
41686;BME280;27370;42.764;23.432;2023-04-15T09:55:13;95001.00;;;16.74;49.19
41686;BME280;27370;42.764;23.432;2023-04-15T09:57:40;95006.28;;;17.20;53.70
41686;BME280;27370;42.764;23.432;2023-04-15T10:00:08;95004.22;;;17.38;48.61
41686;BME280;27370;42.764;23.432;2023-04-15T10:02:42;95010.03;;;17.31;50.43
41686;BME280;27370;42.764;23.432;2023-04-15T10:05:13;95002.66;;;17.23;48.63
41686;BME280;27370;42.764;23.432;2023-04-15T10:07:39;95009.97;;;17.40;55.89
41686;BME280;27370;42.764;23.432;2023-04-15T10:10:07;95005.13;;;17.44;54.44
41686;BME280;27370;42.764;23.432;2023-04-15T10:12:36;95006.16;;;17.47;51.61
41686;BME280;27370;42.764;23.432;2023-04-15T10:15:05;95009.69;;;17.71;49.64
41686;BME280;27370;42.764;23.432;2023-04-15T10:17:31;95009.22;;;17.73;47.59
41686;BME280;27370;42.764;23.432;2023-04-15T10:20:02;94997.78;;;17.74;49.68
41686;BME280;27370;42.764;23.432;2023-04-15T10:22:29;94984.44;;;17.43;48.63
41686;BME280;27370;42.764;23.432;2023-04-15T10:24:56;94990.34;;;17.18;55.89
41686;BME280;27370;42.764;23.432;2023-04-15T10:27:22;94981.06;;;17.49;50.70
41686;BME280;27370;42.764;23.432;2023-04-15T10:29:50;94984.47;;;17.58;50.27
41686;BME280;27370;42.764;23.432;2023-04-15T10:32:19;94985.66;;;17.90;44.63
41686;BME280;27370;42.764;23.432;2023-04-15T10:34:47;94970.94;;;18.02;41.54
41686;BME280;27370;42.764;23.432;2023-04-15T10:37:20;94972.13;;;17.15;41.62
41686;BME280;27370;42.764;23.432;2023-04-15T10:39:45;94970.88;;;17.49;48.36
41686;BME280;27370;42.764;23.432;2023-04-15T10:44:44;94956.09;;;17.94;52.81
41686;BME280;27370;42.764;23.432;2023-04-15T10:47:15;94966.78;;;17.92;44.48
41686;BME280;27370;42.764;23.432;2023-04-15T10:49:47;94958.91;;;17.85;47.95
41686;BME280;27370;42.764;23.432;2023-04-15T10:52:14;94952.75;;;17.75;42.52
41686;BME280;27370;42.764;23.432;2023-04-15T10:54:41;94960.88;;;17.61;41.65
41686;BME280;27370;42.764;23.432;2023-04-15T10:57:12;94951.41;;;17.47;45.19
41686;BME280;27370;42.764;23.432;2023-04-15T11:02:53;94965.72;;;17.42;46.65
41686;BME280;27370;42.764;23.432;2023-04-15T11:05:47;94962.41;;;17.62;46.33
41686;BME280;27370;42.764;23.432;2023-04-15T11:08:12;94964.66;;;17.63;47.17
41686;BME280;27370;42.764;23.432;2023-04-15T11:15:40;94961.59;;;18.53;37.50
41686;BME280;27370;42.764;23.432;2023-04-15T11:18:26;94963.28;;;18.06;39.37
41686;BME280;27370;42.764;23.432;2023-04-15T11:20:58;94962.75;;;17.55;40.81
41686;BME280;27370;42.764;23.432;2023-04-15T11:25:55;94956.88;;;16.99;46.00
41686;BME280;27370;42.764;23.432;2023-04-15T11:28:29;94958.19;;;16.71;43.14
41686;BME280;27370;42.764;23.432;2023-04-15T11:30:55;94961.19;;;16.82;47.43
41686;BME280;27370;42.764;23.432;2023-04-15T11:33:22;94962.75;;;17.07;42.50
41686;BME280;27370;42.764;23.432;2023-04-15T11:35:49;94957.88;;;17.35;40.12
41686;BME280;27370;42.764;23.432;2023-04-15T11:38:17;94955.59;;;17.57;46.38
41686;BME280;27370;42.764;23.432;2023-04-15T11:40:44;94945.34;;;18.05;42.70
41686;BME280;27370;42.764;23.432;2023-04-15T11:43:12;94955.97;;;17.74;43.10
41686;BME280;27370;42.764;23.432;2023-04-15T11:45:55;94943.13;;;17.56;41.90
41686;BME280;27370;42.764;23.432;2023-04-15T11:48:27;94952.84;;;17.57;38.40
41686;BME280;27370;42.764;23.432;2023-04-15T11:50:56;94952.34;;;17.44;39.23
41686;BME280;27370;42.764;23.432;2023-04-15T11:56:09;94946.72;;;17.86;38.31
41686;BME280;27370;42.764;23.432;2023-04-15T11:58:37;94939.41;;;18.36;37.97
41686;BME280;27370;42.764;23.432;2023-04-15T12:01:04;94937.19;;;18.55;38.49
41686;BME280;27370;42.764;23.432;2023-04-15T12:03:40;94936.75;;;18.27;38.29
41686;BME280;27370;42.764;23.432;2023-04-15T12:13:57;94935.50;;;18.58;36.67
41686;BME280;27370;42.764;23.432;2023-04-15T12:16:24;94931.28;;;18.42;37.24
41686;BME280;27370;42.764;23.432;2023-04-15T12:18:54;94927.84;;;18.47;37.53
41686;BME280;27370;42.764;23.432;2023-04-15T12:21:27;94933.06;;;18.30;37.82
41686;BME280;27370;42.764;23.432;2023-04-15T12:24:01;94924.94;;;18.36;41.15
41686;BME280;27370;42.764;23.432;2023-04-15T12:26:30;94920.94;;;18.52;41.88
41686;BME280;27370;42.764;23.432;2023-04-15T12:29:06;94917.44;;;18.81;41.80
41686;BME280;27370;42.764;23.432;2023-04-15T12:31:36;94925.00;;;18.71;36.90
41686;BME280;27370;42.764;23.432;2023-04-15T12:34:02;94925.69;;;18.81;38.94
41686;BME280;27370;42.764;23.432;2023-04-15T12:36:29;94932.56;;;18.76;34.18
41686;BME280;27370;42.764;23.432;2023-04-15T12:39:02;94932.84;;;18.78;36.02
41686;BME280;27370;42.764;23.432;2023-04-15T12:41:29;94931.66;;;19.00;33.93
41686;BME280;27370;42.764;23.432;2023-04-15T12:43:54;94938.06;;;19.11;34.54
41686;BME280;27370;42.764;23.432;2023-04-15T12:46:21;94927.47;;;18.84;36.73
41686;BME280;27370;42.764;23.432;2023-04-15T12:48:46;94942.41;;;18.68;36.31
41686;BME280;27370;42.764;23.432;2023-04-15T12:51:13;94934.69;;;18.66;35.83
41686;BME280;27370;42.764;23.432;2023-04-15T12:53:38;94937.78;;;18.45;34.38
41686;BME280;27370;42.764;23.432;2023-04-15T12:56:04;94934.28;;;18.44;38.07
41686;BME280;27370;42.764;23.432;2023-04-15T12:58:31;94944.66;;;18.55;35.93
41686;BME280;27370;42.764;23.432;2023-04-15T13:00:56;94927.03;;;18.12;36.52
41686;BME280;27370;42.764;23.432;2023-04-15T13:03:22;94937.59;;;18.19;34.93
41686;BME280;27370;42.764;23.432;2023-04-15T13:05:48;94936.66;;;18.36;34.68
41686;BME280;27370;42.764;23.432;2023-04-15T13:08:14;94938.72;;;18.27;36.94
41686;BME280;27370;42.764;23.432;2023-04-15T13:10:40;94940.06;;;18.17;36.36
41686;BME280;27370;42.764;23.432;2023-04-15T13:13:06;94936.28;;;18.14;37.62
41686;BME280;27370;42.764;23.432;2023-04-15T13:15:32;94935.72;;;18.25;39.69